sensor_id;sensor_type;location;lat;lon;timestamp;P1;durP1;ratioP1;P2;durP2;ratioP2
9761;SDS011;4920;49.594;11.022;2022-11-20T00:01:10;30.70;;;18.27;;
9761;SDS011;4920;49.594;11.022;2022-11-20T00:03:40;24.13;;;16.33;;
9761;SDS011;4920;49.594;11.022;2022-11-20T00:06:10;26.77;;;17.17;;
9761;SDS011;4920;49.594;11.022;2022-11-20T00:08:40;27.77;;;17.53;;
9761;SDS011;4920;49.594;11.022;2022-11-20T00:11:08;28.90;;;17.47;;
9761;SDS011;4920;49.594;11.022;2022-11-20T00:13:43;27.97;;;17.50;;
9761;SDS011;4920;49.594;11.022;2022-11-20T00:16:12;29.83;;;16.73;;
9761;SDS011;4920;49.594;11.022;2022-11-20T00:18:42;27.57;;;17.57;;
9761;SDS011;4920;49.594;11.022;2022-11-20T00:21:11;28.07;;;17.40;;
9761;SDS011;4920;49.594;11.022;2022-11-20T00:23:40;26.40;;;17.13;;
9761;SDS011;4920;49.594;11.022;2022-11-20T00:26:09;27.90;;;17.53;;
9761;SDS011;4920;49.594;11.022;2022-11-20T00:28:39;27.13;;;17.23;;
9761;SDS011;4920;49.594;11.022;2022-11-20T00:31:10;24.53;;;16.27;;
9761;SDS011;4920;49.594;11.022;2022-11-20T00:33:40;23.93;;;15.70;;
9761;SDS011;4920;49.594;11.022;2022-11-20T00:36:10;24.33;;;15.60;;
9761;SDS011;4920;49.594;11.022;2022-11-20T00:38:39;23.03;;;15.77;;
9761;SDS011;4920;49.594;11.022;2022-11-20T00:41:08;24.73;;;15.57;;
9761;SDS011;4920;49.594;11.022;2022-11-20T00:43:38;26.37;;;15.70;;
9761;SDS011;4920;49.594;11.022;2022-11-20T00:46:10;25.77;;;15.53;;
9761;SDS011;4920;49.594;11.022;2022-11-20T00:48:40;22.83;;;14.77;;
9761;SDS011;4920;49.594;11.022;2022-11-20T00:51:09;23.60;;;15.17;;
9761;SDS011;4920;49.594;11.022;2022-11-20T00:53:39;22.57;;;14.57;;
9761;SDS011;4920;49.594;11.022;2022-11-20T00:56:09;24.13;;;14.57;;
9761;SDS011;4920;49.594;11.022;2022-11-20T00:58:39;23.67;;;15.03;;
9761;SDS011;4920;49.594;11.022;2022-11-20T01:01:11;22.93;;;14.60;;
9761;SDS011;4920;49.594;11.022;2022-11-20T01:03:41;25.47;;;15.07;;
9761;SDS011;4920;49.594;11.022;2022-11-20T01:06:12;24.97;;;15.03;;
9761;SDS011;4920;49.594;11.022;2022-11-20T01:08:42;23.17;;;15.13;;
9761;SDS011;4920;49.594;11.022;2022-11-20T01:11:12;24.47;;;14.90;;
9761;SDS011;4920;49.594;11.022;2022-11-20T01:13:41;25.93;;;16.03;;
9761;SDS011;4920;49.594;11.022;2022-11-20T01:16:13;23.47;;;14.60;;
9761;SDS011;4920;49.594;11.022;2022-11-20T01:18:43;23.03;;;15.07;;
9761;SDS011;4920;49.594;11.022;2022-11-20T01:21:13;23.50;;;15.03;;
9761;SDS011;4920;49.594;11.022;2022-11-20T01:23:43;24.27;;;15.23;;
9761;SDS011;4920;49.594;11.022;2022-11-20T01:26:15;25.00;;;15.90;;
9761;SDS011;4920;49.594;11.022;2022-11-20T01:28:45;24.50;;;16.00;;
9761;SDS011;4920;49.594;11.022;2022-11-20T01:31:16;26.07;;;16.03;;
9761;SDS011;4920;49.594;11.022;2022-11-20T01:33:46;23.77;;;15.37;;
9761;SDS011;4920;49.594;11.022;2022-11-20T01:36:16;25.17;;;15.53;;
9761;SDS011;4920;49.594;11.022;2022-11-20T01:38:45;25.77;;;15.80;;
9761;SDS011;4920;49.594;11.022;2022-11-20T01:41:14;24.93;;;15.77;;
9761;SDS011;4920;49.594;11.022;2022-11-20T01:44:03;24.83;;;15.83;;
9761;SDS011;4920;49.594;11.022;2022-11-20T01:46:32;25.57;;;15.37;;
9761;SDS011;4920;49.594;11.022;2022-11-20T01:49:04;24.10;;;15.60;;
9761;SDS011;4920;49.594;11.022;2022-11-20T01:51:39;24.80;;;15.00;;
9761;SDS011;4920;49.594;11.022;2022-11-20T01:54:11;24.07;;;15.40;;
9761;SDS011;4920;49.594;11.022;2022-11-20T01:56:43;23.70;;;15.83;;
9761;SDS011;4920;49.594;11.022;2022-11-20T01:59:13;23.40;;;15.17;;
9761;SDS011;4920;49.594;11.022;2022-11-20T02:01:45;25.33;;;15.67;;
9761;SDS011;4920;49.594;11.022;2022-11-20T02:04:14;25.13;;;15.83;;
9761;SDS011;4920;49.594;11.022;2022-11-20T02:06:44;23.70;;;15.07;;
9761;SDS011;4920;49.594;11.022;2022-11-20T02:09:16;24.50;;;15.13;;
9761;SDS011;4920;49.594;11.022;2022-11-20T02:11:45;28.73;;;16.33;;
9761;SDS011;4920;49.594;11.022;2022-11-20T02:14:13;24.30;;;16.20;;
9761;SDS011;4920;49.594;11.022;2022-11-20T02:16:43;26.20;;;15.97;;
9761;SDS011;4920;49.594;11.022;2022-11-20T02:19:16;25.10;;;16.00;;
9761;SDS011;4920;49.594;11.022;2022-11-20T02:21:53;24.70;;;16.07;;
9761;SDS011;4920;49.594;11.022;2022-11-20T02:24:29;24.10;;;15.13;;
9761;SDS011;4920;49.594;11.022;2022-11-20T02:26:58;25.57;;;15.87;;
9761;SDS011;4920;49.594;11.022;2022-11-20T02:29:31;26.70;;;16.77;;
9761;SDS011;4920;49.594;11.022;2022-11-20T02:32:03;26.37;;;16.70;;
9761;SDS011;4920;49.594;11.022;2022-11-20T02:34:31;23.83;;;15.97;;
9761;SDS011;4920;49.594;11.022;2022-11-20T02:37:00;27.13;;;16.40;;
9761;SDS011;4920;49.594;11.022;2022-11-20T02:39:30;25.60;;;16.33;;
9761;SDS011;4920;49.594;11.022;2022-11-20T02:42:00;24.67;;;15.93;;
9761;SDS011;4920;49.594;11.022;2022-11-20T02:44:28;25.33;;;15.47;;
9761;SDS011;4920;49.594;11.022;2022-11-20T02:46:56;25.67;;;16.57;;
9761;SDS011;4920;49.594;11.022;2022-11-20T02:49:25;26.07;;;16.40;;
9761;SDS011;4920;49.594;11.022;2022-11-20T02:51:53;26.43;;;16.43;;
9761;SDS011;4920;49.594;11.022;2022-11-20T02:54:21;27.77;;;17.50;;
9761;SDS011;4920;49.594;11.022;2022-11-20T02:56:51;28.50;;;17.10;;
9761;SDS011;4920;49.594;11.022;2022-11-20T02:59:19;27.57;;;16.93;;
9761;SDS011;4920;49.594;11.022;2022-11-20T03:01:48;26.97;;;16.83;;
9761;SDS011;4920;49.594;11.022;2022-11-20T03:04:16;27.47;;;17.00;;
9761;SDS011;4920;49.594;11.022;2022-11-20T03:06:45;29.17;;;17.93;;
9761;SDS011;4920;49.594;11.022;2022-11-20T03:09:13;29.43;;;17.53;;
9761;SDS011;4920;49.594;11.022;2022-11-20T03:11:41;27.13;;;17.30;;
9761;SDS011;4920;49.594;11.022;2022-11-20T03:14:11;28.97;;;17.17;;
9761;SDS011;4920;49.594;11.022;2022-11-20T03:16:39;27.83;;;17.30;;
9761;SDS011;4920;49.594;11.022;2022-11-20T03:19:08;26.90;;;16.87;;
9761;SDS011;4920;49.594;11.022;2022-11-20T03:21:36;28.23;;;17.93;;
9761;SDS011;4920;49.594;11.022;2022-11-20T03:24:04;29.93;;;17.53;;
9761;SDS011;4920;49.594;11.022;2022-11-20T03:26:33;32.23;;;18.63;;
9761;SDS011;4920;49.594;11.022;2022-11-20T03:29:03;29.33;;;18.27;;
9761;SDS011;4920;49.594;11.022;2022-11-20T03:31:33;27.33;;;17.60;;
9761;SDS011;4920;49.594;11.022;2022-11-20T03:34:03;27.97;;;17.10;;
9761;SDS011;4920;49.594;11.022;2022-11-20T03:36:32;30.23;;;17.83;;
9761;SDS011;4920;49.594;11.022;2022-11-20T03:39:00;30.73;;;18.57;;
9761;SDS011;4920;49.594;11.022;2022-11-20T03:41:30;33.47;;;18.83;;
9761;SDS011;4920;49.594;11.022;2022-11-20T03:44:03;31.97;;;18.90;;
9761;SDS011;4920;49.594;11.022;2022-11-20T03:46:34;30.63;;;19.37;;
9761;SDS011;4920;49.594;11.022;2022-11-20T03:49:03;32.73;;;18.80;;
9761;SDS011;4920;49.594;11.022;2022-11-20T03:51:32;33.43;;;19.50;;
9761;SDS011;4920;49.594;11.022;2022-11-20T03:54:02;29.77;;;18.60;;
9761;SDS011;4920;49.594;11.022;2022-11-20T03:56:32;30.87;;;19.13;;
9761;SDS011;4920;49.594;11.022;2022-11-20T03:59:02;32.20;;;19.13;;
9761;SDS011;4920;49.594;11.022;2022-11-20T04:01:32;34.07;;;19.93;;
9761;SDS011;4920;49.594;11.022;2022-11-20T04:04:03;33.40;;;19.97;;
9761;SDS011;4920;49.594;11.022;2022-11-20T04:06:33;33.33;;;18.47;;
9761;SDS011;4920;49.594;11.022;2022-11-20T04:09:03;34.53;;;19.87;;
9761;SDS011;4920;49.594;11.022;2022-11-20T04:11:33;33.73;;;20.47;;
9761;SDS011;4920;49.594;11.022;2022-11-20T04:14:04;34.30;;;20.07;;
9761;SDS011;4920;49.594;11.022;2022-11-20T04:16:35;35.57;;;20.30;;
9761;SDS011;4920;49.594;11.022;2022-11-20T04:19:05;32.97;;;19.37;;
9761;SDS011;4920;49.594;11.022;2022-11-20T04:21:37;34.93;;;20.53;;
9761;SDS011;4920;49.594;11.022;2022-11-20T04:24:05;33.93;;;20.93;;
9761;SDS011;4920;49.594;11.022;2022-11-20T04:26:34;34.10;;;19.93;;
9761;SDS011;4920;49.594;11.022;2022-11-20T04:29:02;35.87;;;20.20;;
9761;SDS011;4920;49.594;11.022;2022-11-20T04:31:32;35.90;;;21.00;;
9761;SDS011;4920;49.594;11.022;2022-11-20T04:34:03;34.53;;;20.33;;
9761;SDS011;4920;49.594;11.022;2022-11-20T04:36:33;33.03;;;19.43;;
9761;SDS011;4920;49.594;11.022;2022-11-20T04:39:03;36.90;;;19.87;;
9761;SDS011;4920;49.594;11.022;2022-11-20T04:41:33;37.80;;;20.97;;
9761;SDS011;4920;49.594;11.022;2022-11-20T04:44:04;35.47;;;20.97;;
9761;SDS011;4920;49.594;11.022;2022-11-20T04:46:34;33.60;;;20.43;;
9761;SDS011;4920;49.594;11.022;2022-11-20T04:49:05;37.13;;;20.40;;
9761;SDS011;4920;49.594;11.022;2022-11-20T04:51:34;34.27;;;20.60;;
9761;SDS011;4920;49.594;11.022;2022-11-20T04:54:02;35.87;;;20.50;;
9761;SDS011;4920;49.594;11.022;2022-11-20T04:56:31;37.33;;;21.13;;
9761;SDS011;4920;49.594;11.022;2022-11-20T04:58:59;38.17;;;21.67;;
9761;SDS011;4920;49.594;11.022;2022-11-20T05:01:29;36.47;;;20.83;;
9761;SDS011;4920;49.594;11.022;2022-11-20T05:03:57;34.27;;;20.23;;
9761;SDS011;4920;49.594;11.022;2022-11-20T05:06:27;35.77;;;20.33;;
9761;SDS011;4920;49.594;11.022;2022-11-20T05:08:55;36.83;;;20.40;;
9761;SDS011;4920;49.594;11.022;2022-11-20T05:11:24;33.27;;;19.47;;
9761;SDS011;4920;49.594;11.022;2022-11-20T05:13:55;35.90;;;20.17;;
9761;SDS011;4920;49.594;11.022;2022-11-20T05:16:26;39.77;;;20.57;;
9761;SDS011;4920;49.594;11.022;2022-11-20T05:18:54;36.63;;;20.13;;
9761;SDS011;4920;49.594;11.022;2022-11-20T05:21:23;35.67;;;20.03;;
9761;SDS011;4920;49.594;11.022;2022-11-20T05:23:52;36.20;;;20.57;;
9761;SDS011;4920;49.594;11.022;2022-11-20T05:26:22;35.47;;;20.20;;
9761;SDS011;4920;49.594;11.022;2022-11-20T05:28:51;36.43;;;20.77;;
9761;SDS011;4920;49.594;11.022;2022-11-20T05:31:20;35.33;;;20.60;;
9761;SDS011;4920;49.594;11.022;2022-11-20T05:33:53;35.87;;;20.90;;
9761;SDS011;4920;49.594;11.022;2022-11-20T05:36:23;36.83;;;20.13;;
9761;SDS011;4920;49.594;11.022;2022-11-20T05:38:52;35.93;;;20.87;;
9761;SDS011;4920;49.594;11.022;2022-11-20T05:41:26;36.93;;;21.07;;
9761;SDS011;4920;49.594;11.022;2022-11-20T05:43:55;38.67;;;21.07;;
9761;SDS011;4920;49.594;11.022;2022-11-20T05:46:24;40.10;;;21.80;;
9761;SDS011;4920;49.594;11.022;2022-11-20T05:48:55;37.67;;;21.30;;
9761;SDS011;4920;49.594;11.022;2022-11-20T05:51:24;42.47;;;22.07;;
9761;SDS011;4920;49.594;11.022;2022-11-20T05:53:54;37.47;;;21.33;;
9761;SDS011;4920;49.594;11.022;2022-11-20T05:56:23;38.73;;;21.53;;
9761;SDS011;4920;49.594;11.022;2022-11-20T05:58:52;39.77;;;21.80;;
9761;SDS011;4920;49.594;11.022;2022-11-20T06:01:20;39.93;;;22.07;;
9761;SDS011;4920;49.594;11.022;2022-11-20T06:03:50;37.93;;;21.70;;
9761;SDS011;4920;49.594;11.022;2022-11-20T06:06:20;39.93;;;22.60;;
9761;SDS011;4920;49.594;11.022;2022-11-20T06:08:48;41.50;;;22.43;;
9761;SDS011;4920;49.594;11.022;2022-11-20T06:11:18;38.77;;;21.57;;
9761;SDS011;4920;49.594;11.022;2022-11-20T06:13:48;40.23;;;22.07;;
9761;SDS011;4920;49.594;11.022;2022-11-20T06:16:17;41.70;;;23.07;;
9761;SDS011;4920;49.594;11.022;2022-11-20T06:18:48;41.40;;;23.07;;
9761;SDS011;4920;49.594;11.022;2022-11-20T06:21:17;45.03;;;23.63;;
9761;SDS011;4920;49.594;11.022;2022-11-20T06:23:47;44.93;;;23.43;;
9761;SDS011;4920;49.594;11.022;2022-11-20T06:26:18;44.63;;;23.77;;
9761;SDS011;4920;49.594;11.022;2022-11-20T06:28:47;42.37;;;23.43;;
9761;SDS011;4920;49.594;11.022;2022-11-20T06:31:18;41.83;;;23.10;;
9761;SDS011;4920;49.594;11.022;2022-11-20T06:33:47;44.37;;;23.87;;
9761;SDS011;4920;49.594;11.022;2022-11-20T06:36:17;42.47;;;23.00;;
9761;SDS011;4920;49.594;11.022;2022-11-20T06:38:46;44.57;;;23.63;;
9761;SDS011;4920;49.594;11.022;2022-11-20T06:41:15;40.47;;;22.33;;
9761;SDS011;4920;49.594;11.022;2022-11-20T06:43:46;44.33;;;22.77;;
9761;SDS011;4920;49.594;11.022;2022-11-20T06:46:16;42.73;;;23.40;;
9761;SDS011;4920;49.594;11.022;2022-11-20T06:48:45;43.27;;;23.47;;
9761;SDS011;4920;49.594;11.022;2022-11-20T06:51:15;44.70;;;23.47;;
9761;SDS011;4920;49.594;11.022;2022-11-20T06:53:43;43.87;;;22.60;;
9761;SDS011;4920;49.594;11.022;2022-11-20T06:56:12;41.63;;;21.90;;
9761;SDS011;4920;49.594;11.022;2022-11-20T06:58:41;41.60;;;23.03;;
9761;SDS011;4920;49.594;11.022;2022-11-20T07:01:10;45.20;;;22.90;;
9761;SDS011;4920;49.594;11.022;2022-11-20T07:03:40;38.33;;;22.10;;
9761;SDS011;4920;49.594;11.022;2022-11-20T07:06:09;38.80;;;21.73;;
9761;SDS011;4920;49.594;11.022;2022-11-20T07:08:38;39.60;;;21.93;;
9761;SDS011;4920;49.594;11.022;2022-11-20T07:11:06;37.57;;;21.07;;
9761;SDS011;4920;49.594;11.022;2022-11-20T07:13:35;41.13;;;21.53;;
9761;SDS011;4920;49.594;11.022;2022-11-20T07:16:06;41.87;;;22.53;;
9761;SDS011;4920;49.594;11.022;2022-11-20T07:18:35;42.83;;;23.17;;
9761;SDS011;4920;49.594;11.022;2022-11-20T07:21:05;37.73;;;22.00;;
9761;SDS011;4920;49.594;11.022;2022-11-20T07:23:34;41.00;;;21.80;;
9761;SDS011;4920;49.594;11.022;2022-11-20T07:26:04;39.33;;;20.60;;
9761;SDS011;4920;49.594;11.022;2022-11-20T07:28:33;40.07;;;21.70;;
9761;SDS011;4920;49.594;11.022;2022-11-20T07:31:02;38.00;;;21.83;;
9761;SDS011;4920;49.594;11.022;2022-11-20T07:33:32;37.70;;;21.00;;
9761;SDS011;4920;49.594;11.022;2022-11-20T07:36:01;36.80;;;19.67;;
9761;SDS011;4920;49.594;11.022;2022-11-20T07:38:29;38.53;;;21.33;;
9761;SDS011;4920;49.594;11.022;2022-11-20T07:40:58;34.83;;;20.33;;
9761;SDS011;4920;49.594;11.022;2022-11-20T07:43:28;37.87;;;20.93;;
9761;SDS011;4920;49.594;11.022;2022-11-20T07:45:56;34.80;;;20.50;;
9761;SDS011;4920;49.594;11.022;2022-11-20T07:48:25;36.13;;;19.87;;
9761;SDS011;4920;49.594;11.022;2022-11-20T07:50:55;34.43;;;19.37;;
9761;SDS011;4920;49.594;11.022;2022-11-20T07:53:23;34.37;;;19.80;;
9761;SDS011;4920;49.594;11.022;2022-11-20T07:55:52;30.43;;;17.67;;
9761;SDS011;4920;49.594;11.022;2022-11-20T07:58:20;30.73;;;18.30;;
9761;SDS011;4920;49.594;11.022;2022-11-20T08:00:49;31.13;;;18.23;;
9761;SDS011;4920;49.594;11.022;2022-11-20T08:03:17;31.87;;;18.60;;
9761;SDS011;4920;49.594;11.022;2022-11-20T08:05:51;31.77;;;18.73;;
9761;SDS011;4920;49.594;11.022;2022-11-20T08:08:20;30.93;;;18.33;;
9761;SDS011;4920;49.594;11.022;2022-11-20T08:10:49;30.27;;;17.60;;
9761;SDS011;4920;49.594;11.022;2022-11-20T08:13:17;30.33;;;17.97;;
9761;SDS011;4920;49.594;11.022;2022-11-20T08:16:03;27.37;;;16.53;;
9761;SDS011;4920;49.594;11.022;2022-11-20T08:18:31;28.97;;;16.47;;
9761;SDS011;4920;49.594;11.022;2022-11-20T08:21:01;29.37;;;17.33;;
9761;SDS011;4920;49.594;11.022;2022-11-20T08:23:31;27.70;;;16.47;;
9761;SDS011;4920;49.594;11.022;2022-11-20T08:25:59;27.47;;;16.80;;
9761;SDS011;4920;49.594;11.022;2022-11-20T08:28:27;28.70;;;17.10;;
9761;SDS011;4920;49.594;11.022;2022-11-20T08:30:58;27.43;;;16.87;;
9761;SDS011;4920;49.594;11.022;2022-11-20T08:33:26;24.30;;;15.37;;
9761;SDS011;4920;49.594;11.022;2022-11-20T08:35:58;27.37;;;16.97;;
9761;SDS011;4920;49.594;11.022;2022-11-20T08:38:27;26.13;;;16.03;;
9761;SDS011;4920;49.594;11.022;2022-11-20T08:40:57;25.87;;;15.17;;
9761;SDS011;4920;49.594;11.022;2022-11-20T08:43:43;26.67;;;15.23;;
9761;SDS011;4920;49.594;11.022;2022-11-20T08:46:12;25.73;;;15.60;;
9761;SDS011;4920;49.594;11.022;2022-11-20T08:48:41;27.83;;;16.40;;
9761;SDS011;4920;49.594;11.022;2022-11-20T08:51:09;26.80;;;15.73;;
9761;SDS011;4920;49.594;11.022;2022-11-20T08:53:38;26.53;;;15.83;;
9761;SDS011;4920;49.594;11.022;2022-11-20T08:56:08;28.27;;;16.50;;
9761;SDS011;4920;49.594;11.022;2022-11-20T08:58:37;27.93;;;16.33;;
9761;SDS011;4920;49.594;11.022;2022-11-20T09:01:26;28.27;;;16.17;;
9761;SDS011;4920;49.594;11.022;2022-11-20T09:03:55;28.97;;;16.93;;
9761;SDS011;4920;49.594;11.022;2022-11-20T09:06:24;28.17;;;18.03;;
9761;SDS011;4920;49.594;11.022;2022-11-20T09:08:52;29.33;;;18.17;;
9761;SDS011;4920;49.594;11.022;2022-11-20T09:11:22;28.97;;;17.90;;
9761;SDS011;4920;49.594;11.022;2022-11-20T09:13:50;30.73;;;18.70;;
9761;SDS011;4920;49.594;11.022;2022-11-20T09:16:18;28.53;;;17.60;;
9761;SDS011;4920;49.594;11.022;2022-11-20T09:18:49;27.83;;;17.40;;
9761;SDS011;4920;49.594;11.022;2022-11-20T09:21:38;28.40;;;16.73;;
9761;SDS011;4920;49.594;11.022;2022-11-20T09:24:06;29.23;;;17.77;;
9761;SDS011;4920;49.594;11.022;2022-11-20T09:26:36;28.17;;;17.07;;
9761;SDS011;4920;49.594;11.022;2022-11-20T09:29:04;36.53;;;20.67;;
9761;SDS011;4920;49.594;11.022;2022-11-20T09:31:32;34.37;;;20.80;;
9761;SDS011;4920;49.594;11.022;2022-11-20T09:34:00;35.47;;;20.33;;
9761;SDS011;4920;49.594;11.022;2022-11-20T09:36:29;33.33;;;19.80;;
9761;SDS011;4920;49.594;11.022;2022-11-20T09:38:57;33.80;;;20.33;;
9761;SDS011;4920;49.594;11.022;2022-11-20T09:44:43;35.30;;;20.50;;
9761;SDS011;4920;49.594;11.022;2022-11-20T09:47:25;33.00;;;19.53;;
9761;SDS011;4920;49.594;11.022;2022-11-20T09:50:05;35.90;;;20.27;;
9761;SDS011;4920;49.594;11.022;2022-11-20T09:52:41;32.83;;;18.67;;
9761;SDS011;4920;49.594;11.022;2022-11-20T09:55:15;36.53;;;20.00;;
9761;SDS011;4920;49.594;11.022;2022-11-20T09:57:45;35.50;;;20.37;;
9761;SDS011;4920;49.594;11.022;2022-11-20T10:00:17;38.40;;;20.70;;
9761;SDS011;4920;49.594;11.022;2022-11-20T10:02:48;37.37;;;21.50;;
9761;SDS011;4920;49.594;11.022;2022-11-20T10:05:23;36.73;;;20.97;;
9761;SDS011;4920;49.594;11.022;2022-11-20T10:07:55;35.27;;;21.27;;
9761;SDS011;4920;49.594;11.022;2022-11-20T10:10:41;35.27;;;20.50;;
9761;SDS011;4920;49.594;11.022;2022-11-20T10:13:20;30.97;;;18.30;;
9761;SDS011;4920;49.594;11.022;2022-11-20T10:16:01;30.00;;;18.07;;
9761;SDS011;4920;49.594;11.022;2022-11-20T10:18:42;35.37;;;19.90;;
9761;SDS011;4920;49.594;11.022;2022-11-20T10:21:23;31.80;;;17.57;;
9761;SDS011;4920;49.594;11.022;2022-11-20T10:24:02;34.80;;;19.40;;
9761;SDS011;4920;49.594;11.022;2022-11-20T10:26:52;34.60;;;20.27;;
9761;SDS011;4920;49.594;11.022;2022-11-20T10:29:29;43.13;;;21.70;;
9761;SDS011;4920;49.594;11.022;2022-11-20T10:32:03;38.90;;;22.43;;
9761;SDS011;4920;49.594;11.022;2022-11-20T10:34:39;41.93;;;22.43;;
9761;SDS011;4920;49.594;11.022;2022-11-20T10:37:17;44.10;;;23.10;;
9761;SDS011;4920;49.594;11.022;2022-11-20T10:39:50;44.10;;;23.83;;
9761;SDS011;4920;49.594;11.022;2022-11-20T10:42:26;40.97;;;23.33;;
9761;SDS011;4920;49.594;11.022;2022-11-20T10:45:01;44.20;;;24.57;;
9761;SDS011;4920;49.594;11.022;2022-11-20T10:47:38;44.17;;;24.10;;
9761;SDS011;4920;49.594;11.022;2022-11-20T10:50:09;43.33;;;24.30;;
9761;SDS011;4920;49.594;11.022;2022-11-20T10:52:49;43.30;;;24.20;;
9761;SDS011;4920;49.594;11.022;2022-11-20T10:55:28;42.33;;;23.43;;
9761;SDS011;4920;49.594;11.022;2022-11-20T10:58:01;40.77;;;22.33;;
9761;SDS011;4920;49.594;11.022;2022-11-20T11:00:37;37.13;;;21.00;;
9761;SDS011;4920;49.594;11.022;2022-11-20T11:03:13;38.40;;;20.93;;
9761;SDS011;4920;49.594;11.022;2022-11-20T11:05:50;40.10;;;21.37;;
9761;SDS011;4920;49.594;11.022;2022-11-20T11:08:22;38.70;;;19.97;;
9761;SDS011;4920;49.594;11.022;2022-11-20T11:10:54;44.33;;;20.40;;
9761;SDS011;4920;49.594;11.022;2022-11-20T11:13:26;46.00;;;20.43;;
9761;SDS011;4920;49.594;11.022;2022-11-20T11:15:55;46.90;;;21.33;;
9761;SDS011;4920;49.594;11.022;2022-11-20T11:18:26;59.77;;;23.17;;
9761;SDS011;4920;49.594;11.022;2022-11-20T11:20:56;55.07;;;25.07;;
9761;SDS011;4920;49.594;11.022;2022-11-20T11:23:28;57.03;;;25.30;;
9761;SDS011;4920;49.594;11.022;2022-11-20T11:26:00;52.43;;;24.17;;
9761;SDS011;4920;49.594;11.022;2022-11-20T11:28:29;44.47;;;22.57;;
9761;SDS011;4920;49.594;11.022;2022-11-20T11:30:58;39.83;;;21.73;;
9761;SDS011;4920;49.594;11.022;2022-11-20T11:33:28;39.80;;;20.70;;
9761;SDS011;4920;49.594;11.022;2022-11-20T11:35:58;37.03;;;19.77;;
9761;SDS011;4920;49.594;11.022;2022-11-20T11:38:29;33.97;;;19.60;;
9761;SDS011;4920;49.594;11.022;2022-11-20T11:41:01;34.03;;;20.90;;
9761;SDS011;4920;49.594;11.022;2022-11-20T11:43:31;38.03;;;21.77;;
9761;SDS011;4920;49.594;11.022;2022-11-20T11:46:29;32.90;;;20.80;;
9761;SDS011;4920;49.594;11.022;2022-11-20T11:49:01;34.30;;;20.93;;
9761;SDS011;4920;49.594;11.022;2022-11-20T11:51:56;36.23;;;21.40;;
9761;SDS011;4920;49.594;11.022;2022-11-20T11:54:30;36.10;;;21.13;;
9761;SDS011;4920;49.594;11.022;2022-11-20T11:57:05;35.97;;;21.97;;
9761;SDS011;4920;49.594;11.022;2022-11-20T11:59:41;34.30;;;21.33;;
9761;SDS011;4920;49.594;11.022;2022-11-20T12:02:28;28.10;;;18.57;;
9761;SDS011;4920;49.594;11.022;2022-11-20T12:05:05;30.57;;;20.77;;
9761;SDS011;4920;49.594;11.022;2022-11-20T12:07:42;27.63;;;17.70;;
9761;SDS011;4920;49.594;11.022;2022-11-20T12:10:20;27.03;;;17.80;;
9761;SDS011;4920;49.594;11.022;2022-11-20T12:12:52;12.77;;;9.10;;
9761;SDS011;4920;49.594;11.022;2022-11-20T12:15:29;15.70;;;9.70;;
9761;SDS011;4920;49.594;11.022;2022-11-20T12:17:58;15.33;;;9.83;;
9761;SDS011;4920;49.594;11.022;2022-11-20T12:20:28;14.50;;;10.20;;
9761;SDS011;4920;49.594;11.022;2022-11-20T12:23:02;14.60;;;10.43;;
9761;SDS011;4920;49.594;11.022;2022-11-20T12:25:36;14.20;;;9.30;;
9761;SDS011;4920;49.594;11.022;2022-11-20T12:31:13;14.60;;;9.73;;
9761;SDS011;4920;49.594;11.022;2022-11-20T12:33:58;14.67;;;10.13;;
9761;SDS011;4920;49.594;11.022;2022-11-20T12:36:40;16.93;;;10.97;;
9761;SDS011;4920;49.594;11.022;2022-11-20T12:39:22;17.10;;;11.30;;
9761;SDS011;4920;49.594;11.022;2022-11-20T12:42:06;17.20;;;11.33;;
9761;SDS011;4920;49.594;11.022;2022-11-20T12:51:29;17.33;;;12.03;;
9761;SDS011;4920;49.594;11.022;2022-11-20T12:54:32;17.17;;;12.13;;
9761;SDS011;4920;49.594;11.022;2022-11-20T12:57:15;18.33;;;12.50;;
9761;SDS011;4920;49.594;11.022;2022-11-20T12:59:54;17.03;;;11.30;;
9761;SDS011;4920;49.594;11.022;2022-11-20T13:02:33;16.10;;;11.07;;
9761;SDS011;4920;49.594;11.022;2022-11-20T13:05:16;15.07;;;11.10;;
9761;SDS011;4920;49.594;11.022;2022-11-20T13:07:48;15.77;;;11.13;;
9761;SDS011;4920;49.594;11.022;2022-11-20T13:10:23;15.20;;;11.13;;
9761;SDS011;4920;49.594;11.022;2022-11-20T13:12:59;15.07;;;10.80;;
9761;SDS011;4920;49.594;11.022;2022-11-20T13:15:42;15.70;;;10.63;;
9761;SDS011;4920;49.594;11.022;2022-11-20T13:18:18;16.13;;;11.30;;
9761;SDS011;4920;49.594;11.022;2022-11-20T13:20:46;16.63;;;10.90;;
9761;SDS011;4920;49.594;11.022;2022-11-20T13:23:25;15.77;;;10.93;;
9761;SDS011;4920;49.594;11.022;2022-11-20T13:26:13;16.47;;;11.00;;
9761;SDS011;4920;49.594;11.022;2022-11-20T13:28:44;16.40;;;11.57;;
9761;SDS011;4920;49.594;11.022;2022-11-20T13:31:25;17.70;;;12.40;;
9761;SDS011;4920;49.594;11.022;2022-11-20T13:33:58;18.67;;;12.23;;
9761;SDS011;4920;49.594;11.022;2022-11-20T13:36:29;20.33;;;12.23;;
9761;SDS011;4920;49.594;11.022;2022-11-20T13:38:58;17.07;;;11.30;;
9761;SDS011;4920;49.594;11.022;2022-11-20T13:41:28;19.40;;;11.63;;
9761;SDS011;4920;49.594;11.022;2022-11-20T13:44:05;18.47;;;11.93;;
9761;SDS011;4920;49.594;11.022;2022-11-20T13:46:38;17.53;;;12.30;;
9761;SDS011;4920;49.594;11.022;2022-11-20T13:49:10;18.23;;;12.17;;
9761;SDS011;4920;49.594;11.022;2022-11-20T13:51:46;18.47;;;12.40;;
9761;SDS011;4920;49.594;11.022;2022-11-20T14:00:15;18.40;;;12.33;;
9761;SDS011;4920;49.594;11.022;2022-11-20T14:02:46;18.73;;;12.13;;
9761;SDS011;4920;49.594;11.022;2022-11-20T14:05:26;21.63;;;13.73;;
9761;SDS011;4920;49.594;11.022;2022-11-20T14:11:02;25.13;;;14.30;;
9761;SDS011;4920;49.594;11.022;2022-11-20T14:13:35;21.27;;;12.63;;
9761;SDS011;4920;49.594;11.022;2022-11-20T14:16:04;22.00;;;13.30;;
9761;SDS011;4920;49.594;11.022;2022-11-20T14:18:34;23.03;;;13.37;;
9761;SDS011;4920;49.594;11.022;2022-11-20T14:21:03;21.30;;;13.50;;
9761;SDS011;4920;49.594;11.022;2022-11-20T14:23:31;17.93;;;11.93;;
9761;SDS011;4920;49.594;11.022;2022-11-20T14:26:02;20.67;;;12.57;;
9761;SDS011;4920;49.594;11.022;2022-11-20T14:28:31;19.87;;;12.67;;
9761;SDS011;4920;49.594;11.022;2022-11-20T14:31:01;21.83;;;12.77;;
9761;SDS011;4920;49.594;11.022;2022-11-20T14:33:30;18.77;;;12.57;;
9761;SDS011;4920;49.594;11.022;2022-11-20T14:36:00;22.93;;;13.50;;
9761;SDS011;4920;49.594;11.022;2022-11-20T14:38:29;24.13;;;14.03;;
9761;SDS011;4920;49.594;11.022;2022-11-20T14:41:06;21.67;;;13.87;;
9761;SDS011;4920;49.594;11.022;2022-11-20T14:43:35;25.70;;;14.50;;
9761;SDS011;4920;49.594;11.022;2022-11-20T14:46:06;26.27;;;14.30;;
9761;SDS011;4920;49.594;11.022;2022-11-20T14:48:37;26.03;;;15.67;;
9761;SDS011;4920;49.594;11.022;2022-11-20T14:51:08;23.43;;;15.10;;
9761;SDS011;4920;49.594;11.022;2022-11-20T14:53:37;23.77;;;14.90;;
9761;SDS011;4920;49.594;11.022;2022-11-20T14:56:07;24.23;;;15.10;;
9761;SDS011;4920;49.594;11.022;2022-11-20T14:58:36;27.53;;;16.50;;
9761;SDS011;4920;49.594;11.022;2022-11-20T15:01:06;29.70;;;17.23;;
9761;SDS011;4920;49.594;11.022;2022-11-20T15:03:39;27.40;;;15.80;;
9761;SDS011;4920;49.594;11.022;2022-11-20T15:06:10;30.07;;;16.40;;
9761;SDS011;4920;49.594;11.022;2022-11-20T15:08:39;27.00;;;16.10;;
9761;SDS011;4920;49.594;11.022;2022-11-20T15:11:19;27.50;;;16.53;;
9761;SDS011;4920;49.594;11.022;2022-11-20T15:13:53;31.20;;;17.93;;
9761;SDS011;4920;49.594;11.022;2022-11-20T15:16:23;29.10;;;16.83;;
9761;SDS011;4920;49.594;11.022;2022-11-20T15:18:54;30.90;;;17.63;;
9761;SDS011;4920;49.594;11.022;2022-11-20T15:21:22;35.97;;;18.37;;
9761;SDS011;4920;49.594;11.022;2022-11-20T15:23:50;35.27;;;18.37;;